Time;durP1;ratioP1;P1;durP2;ratioP2;P2;SDS_P1;SDS_P2;PMS_P1;PMS_P2;Temp;Humidity;BMP_temperature;BMP_pressure;BME280_temperature;BME280_humidity;BME280_pressure;Samples;Min_cycle;Max_cycle;Signal;HPM_P1;HPM_P2
2024/01/18 00:00:27;;;;;;;53.53;32.63;;;;;;;;;;4391210;32;417183;-81
2024/01/18 00:02:56;;;;;;;49.27;28.97;;;;;;;;;;4424774;32;316408;-82
2024/01/18 00:05:26;;;;;;;51.47;30.03;;;;;;;;;;4408476;32;417146;-82
2024/01/18 00:07:53;;;;;;;57.27;31.73;;;;;;;;;;4408257;32;316418;-81
2024/01/18 00:10:26;;;;;;;58.73;31.13;;;;;;;;;;4387843;32;316533;-81
2024/01/18 00:12:55;;;;;;;49.73;26.40;;;;;;;;;;4425330;32;317891;-82
2024/01/18 00:15:25;;;;;;;47.47;25.63;;;;;;;;;;4375196;32;417941;-81
2024/01/18 00:17:55;;;;;;;58.70;30.83;;;;;;;;;;4424090;32;318018;-82
2024/01/18 00:20:27;;;;;;;50.70;27.77;;;;;;;;;;4403868;32;418577;-82
2024/01/18 00:22:59;;;;;;;46.97;26.83;;;;;;;;;;4411179;32;318130;-82
2024/01/18 00:25:30;;;;;;;43.80;24.30;;;;;;;;;;4406869;32;417669;-82
2024/01/18 00:28:02;;;;;;;39.63;25.53;;;;;;;;;;4356033;32;318184;-82
2024/01/18 00:30:30;;;;;;;52.30;25.70;;;;;;;;;;4349736;32;316287;-82
2024/01/18 00:32:57;;;;;;;41.50;25.63;;;;;;;;;;4330336;32;317767;-82
2024/01/18 00:35:28;;;;;;;34.17;20.57;;;;;;;;;;4352630;32;318376;-82
2024/01/18 00:37:57;;;;;;;35.93;22.13;;;;;;;;;;4339682;32;316491;-82
2024/01/18 00:40:26;;;;;;;37.73;21.60;;;;;;;;;;4321404;32;414447;-81
2024/01/18 00:42:57;;;;;;;46.53;25.50;;;;;;;;;;4343582;32;358254;-82
2024/01/18 00:48:08;;;;;;;38.73;20.27;;;;;;;;;;4309187;32;318012;-83
2024/01/18 00:50:46;;;;;;;37.20;19.93;;;;;;;;;;4348609;32;331609;-83
2024/01/18 00:53:15;;;;;;;32.60;19.70;;;;;;;;;;4348821;32;318247;-83
2024/01/18 00:55:46;;;;;;;29.13;19.27;;;;;;;;;;4359911;32;318503;-83
2024/01/18 00:58:13;;;;;;;42.87;22.80;;;;;;;;;;4318966;32;317514;-80
2024/01/18 01:00:44;;;;;;;39.63;21.33;;;;;;;;;;4344627;32;316409;-81
2024/01/18 01:03:14;;;;;;;32.70;19.40;;;;;;;;;;4338415;32;317968;-80
2024/01/18 01:05:49;;;;;;;21.63;15.43;;;;;;;;;;4360727;32;318296;-81
2024/01/18 01:08:19;;;;;;;26.67;15.60;;;;;;;;;;4330315;32;325136;-83
2024/01/18 01:10:47;;;;;;;26.80;14.47;;;;;;;;;;4345819;32;317871;-81
2024/01/18 01:13:18;;;;;;;24.90;14.53;;;;;;;;;;4340502;32;317825;-81
2024/01/18 01:15:49;;;;;;;23.33;14.03;;;;;;;;;;4353890;32;316509;-83
2024/01/18 01:18:21;;;;;;;24.40;14.67;;;;;;;;;;4307936;32;317716;-81
2024/01/18 01:20:57;;;;;;;25.90;14.57;;;;;;;;;;4347213;32;316722;-81
2024/01/18 01:23:27;;;;;;;23.43;14.60;;;;;;;;;;4316542;32;418188;-83
2024/01/18 01:25:55;;;;;;;24.43;15.30;;;;;;;;;;4344549;32;316756;-81
2024/01/18 01:28:22;;;;;;;22.53;14.97;;;;;;;;;;4338708;32;417776;-81
2024/01/18 01:30:52;;;;;;;27.30;17.40;;;;;;;;;;4353631;32;317860;-83
2024/01/18 01:33:22;;;;;;;25.90;16.33;;;;;;;;;;4340495;32;316738;-82
2024/01/18 01:35:56;;;;;;;27.83;15.20;;;;;;;;;;4349076;32;317371;-81
2024/01/18 01:38:25;;;;;;;26.20;14.23;;;;;;;;;;4341906;32;417661;-83
2024/01/18 01:40:54;;;;;;;27.27;14.80;;;;;;;;;;4350551;32;317640;-81
2024/01/18 01:43:24;;;;;;;24.30;14.57;;;;;;;;;;4336949;32;418095;-81
2024/01/18 01:45:55;;;;;;;23.37;14.20;;;;;;;;;;4331247;32;317283;-81
2024/01/18 01:48:22;;;;;;;21.77;13.53;;;;;;;;;;4322826;32;418550;-82
2024/01/18 01:50:53;;;;;;;24.37;14.67;;;;;;;;;;4350509;32;317862;-81
2024/01/18 01:53:28;;;;;;;27.73;15.63;;;;;;;;;;4339020;32;418683;-83
2024/01/18 01:55:55;;;;;;;31.07;17.87;;;;;;;;;;4356299;32;317930;-83
2024/01/18 01:58:22;;;;;;;30.93;18.10;;;;;;;;;;4350045;32;317494;-80
2024/01/18 02:00:49;;;;;;;29.20;17.63;;;;;;;;;;4363694;32;318014;-82
2024/01/18 02:03:25;;;;;;;30.50;18.37;;;;;;;;;;4326897;32;317547;-82
2024/01/18 02:06:03;;;;;;;31.40;20.37;;;;;;;;;;4365903;32;317883;-83
2024/01/18 02:08:34;;;;;;;31.67;17.50;;;;;;;;;;4350235;32;419179;-82
2024/01/18 02:11:02;;;;;;;25.87;17.70;;;;;;;;;;4352179;32;357374;-83
2024/01/18 02:16:15;;;;;;;27.67;16.07;;;;;;;;;;4341899;32;318066;-81
2024/01/18 02:18:46;;;;;;;30.47;15.50;;;;;;;;;;4362013;32;317660;-81
2024/01/18 02:21:17;;;;;;;34.23;22.17;;;;;;;;;;4345918;32;317623;-82
2024/01/18 02:24:01;;;;;;;35.00;20.73;;;;;;;;;;4354038;32;317390;-82
2024/01/18 02:26:38;;;;;;;35.97;19.23;;;;;;;;;;4327817;32;417958;-81
2024/01/18 02:29:07;;;;;;;32.50;20.93;;;;;;;;;;4344115;32;318870;-81
2024/01/18 02:31:38;;;;;;;31.53;18.07;;;;;;;;;;4353681;32;338672;-82
2024/01/18 02:34:12;;;;;;;37.77;20.07;;;;;;;;;;4332396;32;330090;-80
2024/01/18 02:36:41;;;;;;;31.93;20.53;;;;;;;;;;4353770;32;318257;-82
2024/01/18 02:39:13;;;;;;;33.70;17.93;;;;;;;;;;4356941;32;317723;-82
2024/01/18 02:41:49;;;;;;;29.50;17.57;;;;;;;;;;4357729;32;318396;-81
2024/01/18 02:44:21;;;;;;;24.43;15.63;;;;;;;;;;4348699;32;318581;-82
2024/01/18 02:46:50;;;;;;;26.23;15.47;;;;;;;;;;4361506;32;318112;-82
2024/01/18 02:49:22;;;;;;;30.37;17.13;;;;;;;;;;4354485;32;318547;-82
2024/01/18 02:51:51;;;;;;;23.03;15.67;;;;;;;;;;4357296;32;353145;-81
2024/01/18 02:54:20;;;;;;;25.50;16.57;;;;;;;;;;4327851;32;317548;-82
2024/01/18 02:56:50;;;;;;;22.87;15.63;;;;;;;;;;4360697;32;318159;-82
2024/01/18 02:59:17;;;;;;;23.13;16.03;;;;;;;;;;4339266;32;318183;-82
2024/01/18 03:01:49;;;;;;;29.07;17.50;;;;;;;;;;4355716;32;318612;-83
2024/01/18 03:04:19;;;;;;;21.47;14.90;;;;;;;;;;4339667;32;318636;-83
2024/01/18 03:06:48;;;;;;;19.47;13.47;;;;;;;;;;4359174;32;318062;-83
2024/01/18 03:09:18;;;;;;;18.93;14.20;;;;;;;;;;4357020;32;317551;-83
2024/01/18 03:11:47;;;;;;;18.80;13.40;;;;;;;;;;4363167;32;318441;-82
2024/01/18 03:14:15;;;;;;;17.80;12.57;;;;;;;;;;4337690;32;318213;-81
2024/01/18 03:16:42;;;;;;;16.20;12.13;;;;;;;;;;4394569;32;318329;-81
2024/01/18 03:19:10;;;;;;;18.17;12.63;;;;;;;;;;4401837;32;331466;-81
2024/01/18 03:21:41;;;;;;;15.47;11.13;;;;;;;;;;4412199;32;318304;-81
2024/01/18 03:24:13;;;;;;;22.00;13.07;;;;;;;;;;4395277;32;318288;-79
2024/01/18 03:26:42;;;;;;;19.70;13.63;;;;;;;;;;4412888;32;318409;-83
2024/01/18 03:29:11;;;;;;;23.93;13.73;;;;;;;;;;4384680;32;317982;-83
2024/01/18 03:32:00;;;;;;;22.13;13.67;;;;;;;;;;4398763;32;317696;-81
2024/01/18 03:34:31;;;;;;;17.33;12.10;;;;;;;;;;4375644;32;414517;-83
2024/01/18 03:37:01;;;;;;;19.73;13.20;;;;;;;;;;4384997;32;318629;-82
2024/01/18 03:39:35;;;;;;;18.70;13.43;;;;;;;;;;4396486;32;317737;-81
2024/01/18 03:42:04;;;;;;;22.10;13.90;;;;;;;;;;4391102;32;318508;-81
2024/01/18 03:44:34;;;;;;;19.60;14.00;;;;;;;;;;4397650;32;317580;-81
2024/01/18 03:47:12;;;;;;;22.87;14.53;;;;;;;;;;4383602;32;318922;-81
2024/01/18 03:49:47;;;;;;;19.30;13.83;;;;;;;;;;4404664;32;354437;-81
2024/01/18 03:52:16;;;;;;;25.90;16.23;;;;;;;;;;4395180;32;318614;-81
2024/01/18 03:54:44;;;;;;;26.03;16.13;;;;;;;;;;4413990;32;318332;-83
2024/01/18 03:57:14;;;;;;;28.47;16.93;;;;;;;;;;4401260;32;358725;-81
2024/01/18 03:59:43;;;;;;;26.73;16.47;;;;;;;;;;4409471;32;318126;-81
2024/01/18 04:02:15;;;;;;;25.77;17.43;;;;;;;;;;4375301;32;317626;-81
2024/01/18 04:04:43;;;;;;;21.77;14.07;;;;;;;;;;4397961;32;318180;-81
2024/01/18 04:07:15;;;;;;;29.07;16.50;;;;;;;;;;4391073;32;318477;-81
2024/01/18 04:09:42;;;;;;;22.37;15.23;;;;;;;;;;4390537;32;317643;-83
2024/01/18 04:12:10;;;;;;;25.77;16.67;;;;;;;;;;4345993;32;317874;-81
2024/01/18 04:14:55;;;;;;;28.20;16.13;;;;;;;;;;4388559;32;317608;-83
2024/01/18 04:17:32;;;;;;;31.93;17.80;;;;;;;;;;4381594;32;418697;-81
2024/01/18 04:20:05;;;;;;;19.10;13.17;;;;;;;;;;4373980;32;369335;-81
2024/01/18 04:22:42;;;;;;;22.33;14.27;;;;;;;;;;4396264;32;318031;-81
2024/01/18 04:25:19;;;;;;;21.73;14.40;;;;;;;;;;4386438;32;318104;-81
2024/01/18 04:27:48;;;;;;;19.33;14.43;;;;;;;;;;4398130;32;318407;-81
2024/01/18 04:30:18;;;;;;;20.60;14.67;;;;;;;;;;4392089;32;317733;-82
2024/01/18 04:32:46;;;;;;;24.63;16.77;;;;;;;;;;4411444;32;318307;-82
2024/01/18 04:35:16;;;;;;;24.20;15.47;;;;;;;;;;4373107;32;317668;-82
2024/01/18 04:37:46;;;;;;;21.97;15.73;;;;;;;;;;4384400;32;317601;-83
2024/01/18 04:40:14;;;;;;;27.73;17.83;;;;;;;;;;4377890;32;318251;-83
2024/01/18 04:42:43;;;;;;;24.30;15.90;;;;;;;;;;4398469;32;318236;-83
2024/01/18 04:45:14;;;;;;;19.53;15.17;;;;;;;;;;4368658;32;317973;-84
2024/01/18 04:47:42;;;;;;;21.77;16.33;;;;;;;;;;4391261;32;317906;-82
2024/01/18 04:50:20;;;;;;;27.30;18.00;;;;;;;;;;4358112;32;317705;-81
2024/01/18 04:52:52;;;;;;;24.97;17.10;;;;;;;;;;4385642;32;317865;-82
2024/01/18 04:55:23;;;;;;;23.67;17.47;;;;;;;;;;4392442;32;318192;-81
2024/01/18 04:57:53;;;;;;;26.57;17.13;;;;;;;;;;4388378;32;317993;-81
2024/01/18 05:00:21;;;;;;;31.87;17.17;;;;;;;;;;4383743;32;318356;-81
2024/01/18 05:02:50;;;;;;;29.80;17.97;;;;;;;;;;4404844;32;317757;-83
2024/01/18 05:05:21;;;;;;;31.90;19.13;;;;;;;;;;4396472;32;357709;-81
2024/01/18 05:07:51;;;;;;;53.13;38.63;;;;;;;;;;4398451;32;319452;-81
2024/01/18 05:10:18;;;;;;;31.70;21.97;;;;;;;;;;4383396;32;317863;-83
2024/01/18 05:12:48;;;;;;;37.83;21.47;;;;;;;;;;4399650;32;317605;-81
2024/01/18 05:15:23;;;;;;;35.10;20.20;;;;;;;;;;4378499;32;317854;-81
2024/01/18 05:17:54;;;;;;;27.23;17.80;;;;;;;;;;4411860;32;318029;-82
2024/01/18 05:20:29;;;;;;;34.50;20.47;;;;;;;;;;4365089;32;417581;-83
2024/01/18 05:22:58;;;;;;;37.27;23.33;;;;;;;;;;4390888;32;317203;-82
2024/01/18 05:25:25;;;;;;;40.13;25.27;;;;;;;;;;4419618;32;316576;-81
2024/01/18 05:27:54;;;;;;;40.77;23.27;;;;;;;;;;4424288;32;315617;-81
2024/01/18 05:30:23;;;;;;;47.00;27.57;;;;;;;;;;4384696;32;418344;-82
2024/01/18 05:32:50;;;;;;;42.40;25.97;;;;;;;;;;4419181;32;316223;-82
2024/01/18 05:35:18;;;;;;;37.53;23.63;;;;;;;;;;4412627;32;316561;-81
2024/01/18 05:37:49;;;;;;;34.20;23.77;;;;;;;;;;4416336;32;318274;-83
2024/01/18 05:40:17;;;;;;;32.80;22.10;;;;;;;;;;4403240;32;316595;-82
2024/01/18 05:42:48;;;;;;;49.60;26.20;;;;;;;;;;4411247;32;316523;-83
2024/01/18 05:45:15;;;;;;;34.70;23.03;;;;;;;;;;4382089;32;332564;-83
2024/01/18 05:47:44;;;;;;;64.53;36.77;;;;;;;;;;4381329;32;316570;-83
2024/01/18 05:50:14;;;;;;;73.67;39.27;;;;;;;;;;4362843;32;316595;-83
2024/01/18 05:52:42;;;;;;;68.33;36.90;;;;;;;;;;4379661;32;317700;-82
2024/01/18 05:55:11;;;;;;;64.50;35.30;;;;;;;;;;4341756;32;316602;-83
2024/01/18 05:57:53;;;;;;;51.50;33.97;;;;;;;;;;4339144;32;316555;-84
2024/01/18 06:00:21;;;;;;;55.57;31.73;;;;;;;;;;4326817;32;317696;-82
2024/01/18 06:02:53;;;;;;;67.87;38.10;;;;;;;;;;4344194;32;317636;-82
2024/01/18 06:05:22;;;;;;;60.87;36.47;;;;;;;;;;4344568;32;330110;-83
2024/01/18 06:07:49;;;;;;;64.93;43.00;;;;;;;;;;4354855;32;317662;-83
2024/01/18 06:10:19;;;;;;;66.67;43.77;;;;;;;;;;4319546;32;317677;-83
2024/01/18 06:15:31;;;;;;;84.00;46.03;;;;;;;;;;4338867;32;389550;-82
2024/01/18 06:18:03;;;;;;;50.40;30.63;;;;;;;;;;4357418;32;317453;-81
2024/01/18 06:20:31;;;;;;;46.80;28.57;;;;;;;;;;4376040;32;317671;-81
2024/01/18 06:23:03;;;;;;;59.67;32.53;;;;;;;;;;4369300;32;316101;-82
2024/01/18 06:25:34;;;;;;;73.73;41.90;;;;;;;;;;4364622;32;316206;-82
2024/01/18 06:28:04;;;;;;;71.67;44.73;;;;;;;;;;4325559;32;317293;-82
2024/01/18 06:30:33;;;;;;;101.97;51.50;;;;;;;;;;4385080;32;316678;-83
2024/01/18 06:33:00;;;;;;;81.40;50.40;;;;;;;;;;4368444;32;317196;-81
2024/01/18 06:35:29;;;;;;;72.77;43.53;;;;;;;;;;4365874;32;316396;-83
2024/01/18 06:37:59;;;;;;;65.00;42.27;;;;;;;;;;4352523;32;316505;-81
2024/01/18 06:40:27;;;;;;;88.73;56.50;;;;;;;;;;4357711;32;316386;-81
2024/01/18 06:42:58;;;;;;;97.97;60.80;;;;;;;;;;4378620;32;316974;-83
2024/01/18 06:45:28;;;;;;;98.90;62.30;;;;;;;;;;4386984;32;415923;-81
2024/01/18 06:47:57;;;;;;;76.83;46.77;;;;;;;;;;4426690;32;316197;-81
2024/01/18 06:50:28;;;;;;;76.13;48.37;;;;;;;;;;4408852;32;416290;-81
2024/01/18 06:52:54;;;;;;;68.73;45.73;;;;;;;;;;4421848;32;316237;-81
2024/01/18 06:55:22;;;;;;;68.50;45.67;;;;;;;;;;4399735;32;415926;-82
2024/01/18 06:57:50;;;;;;;73.47;50.77;;;;;;;;;;4416116;32;317024;-80
2024/01/18 07:00:32;;;;;;;65.10;46.67;;;;;;;;;;4407689;32;316764;-84
2024/01/18 07:03:00;;;;;;;64.53;40.87;;;;;;;;;;4386034;32;317689;-83
2024/01/18 07:05:27;;;;;;;63.97;44.90;;;;;;;;;;4405662;32;318347;-83
2024/01/18 07:07:58;;;;;;;68.10;46.97;;;;;;;;;;4396858;32;317303;-83
2024/01/18 07:10:24;;;;;;;89.07;56.33;;;;;;;;;;4387779;32;417571;-84
2024/01/18 07:12:52;;;;;;;109.10;67.80;;;;;;;;;;4409956;32;318199;-82
2024/01/18 07:15:22;;;;;;;162.33;82.60;;;;;;;;;;4398369;32;318634;-82
2024/01/18 07:17:48;;;;;;;439.53;189.90;;;;;;;;;;4409025;32;318794;-82
2024/01/18 07:20:17;;;;;;;112.67;62.63;;;;;;;;;;4392734;32;320278;-82
2024/01/18 07:22:48;;;;;;;90.97;57.70;;;;;;;;;;4410149;32;318389;-82
2024/01/18 07:25:14;;;;;;;129.97;73.60;;;;;;;;;;4399269;32;317813;-82
2024/01/18 07:27:41;;;;;;;102.83;62.03;;;;;;;;;;4404038;32;317528;-82
2024/01/18 07:30:09;;;;;;;94.50;58.53;;;;;;;;;;4389238;32;319449;-83
2024/01/18 07:32:38;;;;;;;88.00;55.73;;;;;;;;;;4405098;32;318268;-82
2024/01/18 07:35:07;;;;;;;75.63;46.30;;;;;;;;;;4402407;32;317401;-83
2024/01/18 07:37:34;;;;;;;70.63;47.87;;;;;;;;;;4401312;32;317476;-82
2024/01/18 07:40:04;;;;;;;67.63;44.03;;;;;;;;;;4393772;32;318156;-82
2024/01/18 07:42:32;;;;;;;92.60;54.77;;;;;;;;;;4410748;32;317752;-84
2024/01/18 07:45:00;;;;;;;82.97;50.77;;;;;;;;;;4398568;32;318102;-83
2024/01/18 07:47:28;;;;;;;99.27;58.53;;;;;;;;;;4388891;32;318105;-82
2024/01/18 07:49:58;;;;;;;96.20;59.60;;;;;;;;;;4392953;32;317358;-83
2024/01/18 07:52:28;;;;;;;102.43;62.10;;;;;;;;;;4371902;32;417368;-82
2024/01/18 07:54:58;;;;;;;98.50;56.37;;;;;;;;;;4384016;32;318994;-82
2024/01/18 07:57:25;;;;;;;89.23;53.37;;;;;;;;;;4392519;32;318076;-83
2024/01/18 07:59:53;;;;;;;93.10;60.40;;;;;;;;;;4396719;32;317627;-82
2024/01/18 08:02:22;;;;;;;100.03;61.27;;;;;;;;;;4381875;32;318284;-82
2024/01/18 08:04:50;;;;;;;82.63;49.40;;;;;;;;;;4411203;32;318447;-82
2024/01/18 08:07:18;;;;;;;81.07;50.10;;;;;;;;;;4396573;32;318436;-82
2024/01/18 08:09:48;;;;;;;88.30;54.67;;;;;;;;;;4409111;32;317768;-82
2024/01/18 08:12:20;;;;;;;69.97;44.73;;;;;;;;;;4382914;32;318374;-82
2024/01/18 08:14:47;;;;;;;84.50;53.13;;;;;;;;;;4398344;32;318163;-82
2024/01/18 08:17:17;;;;;;;83.80;55.17;;;;;;;;;;4388981;32;318030;-82
2024/01/18 08:19:44;;;;;;;100.47;60.73;;;;;;;;;;4412492;32;317401;-83
2024/01/18 08:22:12;;;;;;;91.03;50.63;;;;;;;;;;4389656;32;318671;-84
2024/01/18 08:24:41;;;;;;;79.17;48.80;;;;;;;;;;4390901;32;317843;-84
2024/01/18 08:27:09;;;;;;;78.07;46.57;;;;;;;;;;4390144;32;318337;-84
2024/01/18 08:29:38;;;;;;;81.27;46.40;;;;;;;;;;4413086;32;317659;-82
2024/01/18 08:32:06;;;;;;;88.93;48.00;;;;;;;;;;4392325;32;317532;-83
2024/01/18 08:34:35;;;;;;;75.43;48.50;;;;;;;;;;4408472;32;318315;-84
2024/01/18 08:37:04;;;;;;;82.10;52.27;;;;;;;;;;4403375;32;358988;-83
2024/01/18 08:39:31;;;;;;;84.97;54.97;;;;;;;;;;4412974;32;318656;-82
2024/01/18 08:42:05;;;;;;;67.93;43.30;;;;;;;;;;4403721;32;318303;-83
2024/01/18 08:44:33;;;;;;;77.77;44.23;;;;;;;;;;4412965;32;318251;-83
2024/01/18 08:47:01;;;;;;;90.17;53.57;;;;;;;;;;4399624;32;343805;-81
2024/01/18 08:49:30;;;;;;;80.90;51.10;;;;;;;;;;4411107;32;317443;-84
2024/01/18 08:51:57;;;;;;;84.10;52.97;;;;;;;;;;4396917;32;318431;-81
2024/01/18 08:54:25;;;;;;;78.50;48.60;;;;;;;;;;4402934;32;317641;-81
2024/01/18 08:56:53;;;;;;;68.00;43.63;;;;;;;;;;4408072;32;317336;-81
2024/01/18 08:59:23;;;;;;;74.30;52.40;;;;;;;;;;4395275;32;417431;-82
2024/01/18 09:01:50;;;;;;;86.87;53.40;;;;;;;;;;4407837;32;318221;-82
2024/01/18 09:04:17;;;;;;;71.60;45.70;;;;;;;;;;4394510;32;318067;-81
2024/01/18 09:06:45;;;;;;;95.50;57.80;;;;;;;;;;4409800;32;317515;-82
2024/01/18 09:09:13;;;;;;;61.57;37.47;;;;;;;;;;4399616;32;348986;-81
2024/01/18 09:11:42;;;;;;;57.73;34.63;;;;;;;;;;4409629;32;316476;-81
2024/01/18 09:14:12;;;;;;;54.63;32.07;;;;;;;;;;4395128;32;318413;-80
2024/01/18 09:16:46;;;;;;;46.33;29.40;;;;;;;;;;4410175;32;318593;-80
2024/01/18 09:19:13;;;;;;;42.23;26.77;;;;;;;;;;4401672;32;318749;-80
2024/01/18 09:21:44;;;;;;;46.23;29.10;;;;;;;;;;4410287;32;319186;-81
2024/01/18 09:24:11;;;;;;;40.93;24.47;;;;;;;;;;4395166;32;319015;-81
2024/01/18 09:26:39;;;;;;;53.67;36.10;;;;;;;;;;4409842;32;319244;-81
2024/01/18 09:29:06;;;;;;;37.80;22.37;;;;;;;;;;4400343;32;318572;-81
2024/01/18 09:31:35;;;;;;;40.80;26.00;;;;;;;;;;4411108;32;319071;-81
2024/01/18 09:34:03;;;;;;;63.53;35.70;;;;;;;;;;4402286;32;318569;-81
2024/01/18 09:36:33;;;;;;;99.67;41.47;;;;;;;;;;4412771;32;319365;-82
2024/01/18 09:39:00;;;;;;;34.50;20.17;;;;;;;;;;4403630;32;319174;-83
2024/01/18 09:41:29;;;;;;;42.20;20.70;;;;;;;;;;4413103;32;318558;-82
2024/01/18 09:44:03;;;;;;;29.17;18.70;;;;;;;;;;4413097;32;319372;-82
2024/01/18 09:46:31;;;;;;;34.33;21.73;;;;;;;;;;4397323;32;420793;-82
2024/01/18 09:48:58;;;;;;;32.13;19.83;;;;;;;;;;4399574;32;339319;-82
2024/01/18 09:51:27;;;;;;;41.90;24.97;;;;;;;;;;4411901;32;328546;-82
2024/01/18 09:53:55;;;;;;;47.73;27.17;;;;;;;;;;4412480;32;318252;-83
2024/01/18 09:56:28;;;;;;;56.00;30.47;;;;;;;;;;4391227;32;420157;-82
2024/01/18 09:58:55;;;;;;;46.07;25.10;;;;;;;;;;4411410;32;320685;-82
2024/01/18 10:01:24;;;;;;;26.73;16.60;;;;;;;;;;4395850;32;418469;-82
2024/01/18 10:03:52;;;;;;;19.90;11.50;;;;;;;;;;4403489;32;319929;-83
2024/01/18 10:06:19;;;;;;;20.63;11.40;;;;;;;;;;4406725;32;319384;-84
2024/01/18 10:08:51;;;;;;;20.87;13.30;;;;;;;;;;4404365;32;319049;-81
2024/01/18 10:11:19;;;;;;;24.33;11.63;;;;;;;;;;4412406;32;319014;-82
2024/01/18 10:13:54;;;;;;;13.07;7.37;;;;;;;;;;4404282;32;319009;-83
2024/01/18 10:16:29;;;;;;;15.53;9.33;;;;;;;;;;4393662;32;317531;-81
2024/01/18 10:19:00;;;;;;;15.83;10.33;;;;;;;;;;4393088;32;318382;-81
2024/01/18 10:21:28;;;;;;;8.23;5.17;;;;;;;;;;4400540;32;349235;-81
2024/01/18 10:23:57;;;;;;;7.30;3.70;;;;;;;;;;4400956;32;317123;-82
2024/01/18 10:26:29;;;;;;;8.60;4.37;;;;;;;;;;4409822;32;328652;-82
2024/01/18 10:28:57;;;;;;;8.57;4.57;;;;;;;;;;4405100;32;318112;-84
2024/01/18 10:31:24;;;;;;;18.23;9.87;;;;;;;;;;4394197;32;317073;-82
2024/01/18 10:33:51;;;;;;;11.97;3.27;;;;;;;;;;4387920;32;317942;-84
2024/01/18 10:36:19;;;;;;;9.40;4.43;;;;;;;;;;4395383;32;318141;-82
2024/01/18 10:38:47;;;;;;;5.50;2.97;;;;;;;;;;4387552;32;366414;-81
2024/01/18 10:41:19;;;;;;;4.77;2.30;;;;;;;;;;4398582;32;317204;-84
2024/01/18 10:43:48;;;;;;;8.87;3.80;;;;;;;;;;4389390;32;346552;-81
2024/01/18 10:46:17;;;;;;;9.07;3.77;;;;;;;;;;4381669;32;317151;-82
2024/01/18 10:48:45;;;;;;;7.37;3.50;;;;;;;;;;4391629;32;317465;-82
2024/01/18 10:51:14;;;;;;;8.80;2.83;;;;;;;;;;4414404;32;317189;-82
2024/01/18 10:53:42;;;;;;;4.53;3.23;;;;;;;;;;4406593;32;316541;-82
2024/01/18 10:56:09;;;;;;;5.97;3.73;;;;;;;;;;4378396;32;315303;-81
2024/01/18 10:58:38;;;;;;;9.83;5.27;;;;;;;;;;4400535;32;316886;-81
2024/01/18 11:01:06;;;;;;;12.80;3.23;;;;;;;;;;4394732;32;317101;-83
2024/01/18 11:03:36;;;;;;;9.77;5.80;;;;;;;;;;4405093;32;316503;-82
2024/01/18 11:06:09;;;;;;;9.40;5.93;;;;;;;;;;4395363;32;316639;-84
2024/01/18 11:08:38;;;;;;;6.37;3.50;;;;;;;;;;4402355;32;316819;-84
2024/01/18 11:11:07;;;;;;;6.03;2.40;;;;;;;;;;4402083;32;316405;-83
2024/01/18 11:13:35;;;;;;;5.27;4.20;;;;;;;;;;4403774;32;316439;-83
2024/01/18 11:16:04;;;;;;;3.77;2.53;;;;;;;;;;4385327;32;350689;-82
2024/01/18 11:18:34;;;;;;;5.67;2.97;;;;;;;;;;4397534;32;317186;-83
2024/01/18 11:21:04;;;;;;;5.67;2.73;;;;;;;;;;4391487;32;317148;-83
2024/01/18 11:23:38;;;;;;;8.13;2.60;;;;;;;;;;4415629;32;316560;-82
2024/01/18 11:26:08;;;;;;;4.53;2.60;;;;;;;;;;4394365;32;317660;-82
2024/01/18 11:28:36;;;;;;;6.70;2.80;;;;;;;;;;4406566;32;316419;-81
2024/01/18 11:31:04;;;;;;;4.50;2.35;;;;;;;;;;4392651;32;357508;-82
2024/01/18 11:33:34;;;;;;;11.15;3.45;;;;;;;;;;4415025;32;319329;-83
2024/01/18 11:36:02;;;;;;;9.23;2.87;;;;;;;;;;4395974;32;356591;-82
2024/01/18 11:38:32;;;;;;;10.63;2.77;;;;;;;;;;4411061;32;317210;-80
2024/01/18 11:41:07;;;;;;;10.63;4.00;;;;;;;;;;4401185;32;317709;-84
2024/01/18 11:43:52;;;;;;;10.17;2.60;;;;;;;;;;4404930;32;353581;-81
2024/01/18 11:46:35;;;;;;;9.47;3.53;;;;;;;;;;4400927;32;417870;-84
2024/01/18 11:49:03;;;;;;;9.50;3.15;;;;;;;;;;4403702;32;317344;-83
2024/01/18 11:51:31;;;;;;;5.43;2.53;;;;;;;;;;4411775;32;337979;-83
2024/01/18 11:54:00;;;;;;;5.33;2.80;;;;;;;;;;4394263;32;328267;-83
2024/01/18 11:56:29;;;;;;;9.33;2.80;;;;;;;;;;4379419;32;317098;-81
2024/01/18 11:58:59;;;;;;;11.33;4.73;;;;;;;;;;4356135;32;316719;-83
2024/01/18 12:01:26;;;;;;;3.58;2.53;;;;;;;;;;4364476;32;317791;-83
2024/01/18 12:03:56;;;;;;;8.65;3.62;;;;;;;;;;4354167;32;317063;-84
2024/01/18 12:06:26;;;;;;;4.57;3.00;;;;;;;;;;4360900;32;317000;-84
2024/01/18 12:08:59;;;;;;;16.67;4.07;;;;;;;;;;4341288;32;316506;-83
2024/01/18 12:11:28;;;;;;;4.13;2.53;;;;;;;;;;4350686;32;318077;-81
2024/01/18 12:13:55;;;;;;;5.00;3.10;;;;;;;;;;4337572;32;315957;-84
2024/01/18 12:16:23;;;;;;;7.35;3.97;;;;;;;;;;4351585;32;354059;-83
2024/01/18 12:18:52;;;;;;;13.98;4.70;;;;;;;;;;4361862;32;316394;-82
2024/01/18 12:21:22;;;;;;;8.00;3.53;;;;;;;;;;4378230;32;317347;-83
2024/01/18 12:23:54;;;;;;;4.30;2.42;;;;;;;;;;4369035;32;315901;-81
2024/01/18 12:26:22;;;;;;;18.63;8.97;;;;;;;;;;4369861;32;315188;-81
2024/01/18 12:28:52;;;;;;;7.67;2.40;;;;;;;;;;4344459;32;317963;-80
2024/01/18 12:31:20;;;;;;;8.73;3.08;;;;;;;;;;4348932;32;317344;-79
2024/01/18 12:33:47;;;;;;;6.33;3.23;;;;;;;;;;4339486;32;316825;-82
2024/01/18 12:36:16;;;;;;;12.73;4.18;;;;;;;;;;4343763;32;316589;-82
2024/01/18 12:38:47;;;;;;;8.45;2.80;;;;;;;;;;4351621;32;316481;-82
2024/01/18 12:41:15;;;;;;;10.50;2.67;;;;;;;;;;4341649;32;417879;-81
2024/01/18 12:43:42;;;;;;;10.15;4.00;;;;;;;;;;4350711;32;317485;-84
2024/01/18 12:46:09;;;;;;;13.73;4.77;;;;;;;;;;4331239;32;420232;-82
2024/01/18 12:48:39;;;;;;;7.80;3.30;;;;;;;;;;4361891;32;317624;-83
2024/01/18 12:51:06;;;;;;;7.70;2.67;;;;;;;;;;4355206;32;317450;-84
2024/01/18 12:53:34;;;;;;;7.50;3.60;;;;;;;;;;4364874;32;316149;-83
2024/01/18 12:56:04;;;;;;;7.20;3.08;;;;;;;;;;4348265;32;316549;-83
2024/01/18 12:58:33;;;;;;;6.90;2.87;;;;;;;;;;4360638;32;316652;-83
2024/01/18 13:01:00;;;;;;;6.53;3.03;;;;;;;;;;4350064;32;315947;-83
2024/01/18 13:03:26;;;;;;;13.60;3.00;;;;;;;;;;4359518;32;315823;-83
2024/01/18 13:05:56;;;;;;;5.90;3.30;;;;;;;;;;4348816;32;319423;-82
2024/01/18 13:08:22;;;;;;;8.55;4.07;;;;;;;;;;4353789;32;317495;-82
2024/01/18 13:10:49;;;;;;;9.02;3.17;;;;;;;;;;4342919;32;317093;-83
2024/01/18 13:13:17;;;;;;;10.68;3.37;;;;;;;;;;4360713;32;316605;-81
2024/01/18 13:15:44;;;;;;;5.35;3.55;;;;;;;;;;4354870;32;317817;-81
2024/01/18 13:18:13;;;;;;;11.70;4.65;;;;;;;;;;4358847;32;315566;-83
2024/01/18 13:20:41;;;;;;;10.23;3.25;;;;;;;;;;4365037;32;316699;-83
2024/01/18 13:23:09;;;;;;;20.42;5.80;;;;;;;;;;4354238;32;317586;-82
2024/01/18 13:25:36;;;;;;;15.48;5.45;;;;;;;;;;4337422;32;317634;-82
2024/01/18 13:28:05;;;;;;;12.35;4.03;;;;;;;;;;4339844;32;359464;-83
2024/01/18 13:30:33;;;;;;;20.50;11.68;;;;;;;;;;4359424;32;318719;-83
2024/01/18 13:33:01;;;;;;;25.40;12.80;;;;;;;;;;4354764;32;319258;-83
2024/01/18 13:35:28;;;;;;;17.80;6.55;;;;;;;;;;4361544;32;319056;-83
2024/01/18 13:37:57;;;;;;;9.20;6.15;;;;;;;;;;4379608;32;318565;-84
2024/01/18 13:40:27;;;;;;;8.88;4.05;;;;;;;;;;4405669;32;317424;-83
2024/01/18 13:42:57;;;;;;;8.30;3.53;;;;;;;;;;4399306;32;316354;-82
2024/01/18 13:45:24;;;;;;;8.80;2.93;;;;;;;;;;4403027;32;316603;-83
2024/01/18 13:48:14;;;;;;;14.47;3.70;;;;;;;;;;4392549;32;317363;-80
2024/01/18 13:50:41;;;;;;;5.60;2.80;;;;;;;;;;4399318;32;317599;-81
2024/01/18 13:53:09;;;;;;;9.20;3.40;;;;;;;;;;4393211;32;317419;-79
2024/01/18 13:55:36;;;;;;;8.37;3.80;;;;;;;;;;4406121;32;317187;-79
2024/01/18 13:58:05;;;;;;;12.02;4.82;;;;;;;;;;4388607;32;318289;-79
2024/01/18 14:00:35;;;;;;;10.43;3.62;;;;;;;;;;4402080;32;318687;-79
2024/01/18 14:03:06;;;;;;;19.12;6.12;;;;;;;;;;4391677;32;317946;-79
2024/01/18 14:05:34;;;;;;;12.07;5.03;;;;;;;;;;4401987;32;317332;-79
2024/01/18 14:08:00;;;;;;;14.63;3.97;;;;;;;;;;4385531;32;318181;-79
2024/01/18 14:10:28;;;;;;;17.77;5.67;;;;;;;;;;4411610;32;319094;-80
2024/01/18 14:12:56;;;;;;;14.07;5.43;;;;;;;;;;4393124;32;336864;-81
2024/01/18 14:15:25;;;;;;;9.18;5.60;;;;;;;;;;4401962;32;318198;-79
2024/01/18 14:17:53;;;;;;;17.07;4.87;;;;;;;;;;4402153;32;317069;-81
2024/01/18 14:20:21;;;;;;;7.53;3.80;;;;;;;;;;4402578;32;318422;-81
2024/01/18 14:22:49;;;;;;;6.77;4.13;;;;;;;;;;4401809;32;317144;-78
2024/01/18 14:25:16;;;;;;;6.60;4.20;;;;;;;;;;4410930;32;317242;-79
2024/01/18 14:27:43;;;;;;;6.87;2.47;;;;;;;;;;4413339;32;317294;-81
2024/01/18 14:30:10;;;;;;;8.47;3.00;;;;;;;;;;4393340;32;417253;-85
2024/01/18 14:32:39;;;;;;;7.53;3.57;;;;;;;;;;4405405;32;317507;-83